createdAt,value
2018-04-26T00:01:31.771Z,5.43
2018-04-26T00:03:57.963Z,4.33
2018-04-26T00:06:24.181Z,5.73
2018-04-26T00:08:50.434Z,5.03
2018-04-26T00:11:16.636Z,5.03
2018-04-26T00:13:42.863Z,5.33
2018-04-26T00:16:09.813Z,5.50
2018-04-26T00:18:36.749Z,5.77
2018-04-26T00:21:02.937Z,5.67
2018-04-26T00:23:29.145Z,5.40
2018-04-26T00:25:55.318Z,5.20
2018-04-26T00:28:21.498Z,5.33
2018-04-26T00:30:48.450Z,5.70
2018-04-26T00:33:15.370Z,5.03
2018-04-26T00:35:42.321Z,5.97
2018-04-26T00:38:08.533Z,5.30
2018-04-26T00:40:34.738Z,5.43
2018-04-26T00:43:00.947Z,5.40
2018-04-26T00:45:27.879Z,4.97
2018-04-26T00:47:54.097Z,5.00
2018-04-26T00:50:20.253Z,5.07
2018-04-26T00:52:47.163Z,4.87
2018-04-26T00:55:13.378Z,4.97
2018-04-26T00:57:39.552Z,4.43
2018-04-26T01:00:05.733Z,5.10
2018-04-26T01:02:31.961Z,4.53
2018-04-26T01:04:58.146Z,4.87
2018-04-26T01:07:24.366Z,5.37
2018-04-26T01:09:50.566Z,5.83
2018-04-26T01:12:17.502Z,5.40
2018-04-26T01:14:43.698Z,5.17
2018-04-26T01:17:09.874Z,5.70
2018-04-26T01:19:36.095Z,5.07
2018-04-26T01:22:03.033Z,4.90
2018-04-26T01:24:29.946Z,5.27
2018-04-26T01:26:56.125Z,5.57
2018-04-26T01:29:23.037Z,4.77
2018-04-26T01:31:49.254Z,5.10
2018-04-26T01:34:15.434Z,5.33
2018-04-26T01:36:54.982Z,4.83
2018-04-26T01:39:21.166Z,5.03
2018-04-26T01:41:47.332Z,4.97
2018-04-26T01:44:13.543Z,4.83
2018-04-26T01:46:39.733Z,5.50
2018-04-26T01:49:05.950Z,4.77
2018-04-26T01:51:32.148Z,5.50
2018-04-26T01:53:58.363Z,5.27
2018-04-26T01:56:24.570Z,4.93
2018-04-26T01:58:50.818Z,4.83
2018-04-26T02:01:17.028Z,5.07
2018-04-26T02:03:43.206Z,4.90
2018-04-26T02:06:09.378Z,5.13
2018-04-26T02:08:36.317Z,5.50
2018-04-26T02:11:03.269Z,5.27
2018-04-26T02:13:30.213Z,5.40
2018-04-26T02:15:57.150Z,5.30
2018-04-26T02:18:24.094Z,5.57
2018-04-26T02:20:50.286Z,5.47
2018-04-26T02:23:16.485Z,5.57
2018-04-26T02:25:43.438Z,6.10
2018-04-26T02:28:10.406Z,5.43
2018-04-26T02:30:36.611Z,5.67
2018-04-26T02:33:03.580Z,5.50
2018-04-26T02:35:29.766Z,5.73
2018-04-26T02:37:55.982Z,5.20
2018-04-26T02:40:22.192Z,5.80
2018-04-26T02:42:48.364Z,5.53
2018-04-26T02:45:14.570Z,6.20
2018-04-26T02:47:40.757Z,5.73
2018-04-26T02:50:07.922Z,5.07
2018-04-26T02:52:34.915Z,5.93
2018-04-26T02:55:01.104Z,6.27
2018-04-26T02:57:27.297Z,5.20
2018-04-26T02:59:53.486Z,5.33
2018-04-26T03:02:19.682Z,5.13
2018-04-26T03:04:45.865Z,5.77
2018-04-26T03:07:12.047Z,5.47
2018-04-26T03:09:38.247Z,6.10
2018-04-26T03:12:04.454Z,5.30
2018-04-26T03:14:31.297Z,5.13
2018-04-26T03:16:57.482Z,5.73
2018-04-26T03:19:23.668Z,5.63
2018-04-26T03:21:49.855Z,5.30
2018-04-26T03:24:16.049Z,5.90
2018-04-26T03:26:42.249Z,6.47
2018-04-26T03:29:09.170Z,5.43
2018-04-26T03:31:35.355Z,5.30
2018-04-26T03:34:01.536Z,5.77
2018-04-26T03:36:27.722Z,5.53
2018-04-26T03:38:53.929Z,5.60
2018-04-26T03:41:20.832Z,5.87
2018-04-26T03:43:47.037Z,5.57
2018-04-26T03:46:13.225Z,5.90
2018-04-26T03:48:39.411Z,5.37
2018-04-26T03:51:05.633Z,6.10
2018-04-26T03:53:31.798Z,5.37
2018-04-26T03:55:57.985Z,5.20
2018-04-26T03:58:24.181Z,5.50
2018-04-26T04:01:02.779Z,5.80
2018-04-26T04:03:41.375Z,5.13
2018-04-26T04:06:14.201Z,6.57
2018-04-26T04:08:40.410Z,6.20
2018-04-26T04:11:06.675Z,5.40
2018-04-26T04:13:33.265Z,6.30
2018-04-26T04:15:59.467Z,5.67
2018-04-26T04:18:26.401Z,5.43
2018-04-26T04:20:52.573Z,5.87
2018-04-26T04:23:18.851Z,5.80
2018-04-26T04:25:45.041Z,5.03
2018-04-26T04:28:11.245Z,5.90
2018-04-26T04:30:38.174Z,5.37
2018-04-26T04:33:04.354Z,5.70
2018-04-26T04:35:30.537Z,5.80
2018-04-26T04:37:56.719Z,6.30
2018-04-26T04:40:22.935Z,6.20
2018-04-26T04:42:49.136Z,5.90
2018-04-26T04:45:15.346Z,5.50
2018-04-26T04:47:41.579Z,5.37
2018-04-26T04:50:07.765Z,5.50
2018-04-26T04:52:34.742Z,5.87
2018-04-26T04:55:01.846Z,5.17
2018-04-26T04:57:28.025Z,5.13
2018-04-26T04:59:54.216Z,5.10
2018-04-26T05:02:20.406Z,4.93
2018-04-26T05:04:46.622Z,4.50
2018-04-26T05:07:13.558Z,5.00
2018-04-26T05:09:39.741Z,4.50
2018-04-26T05:12:06.067Z,4.50
2018-04-26T05:14:32.359Z,4.33
2018-04-26T05:16:58.571Z,4.93
2018-04-26T05:19:24.763Z,4.53
2018-04-26T05:21:50.962Z,4.67
2018-04-26T05:24:17.901Z,4.07
2018-04-26T05:26:44.816Z,4.20
2018-04-26T05:29:11.042Z,4.20
2018-04-26T05:31:37.237Z,4.63
2018-04-26T05:34:03.413Z,4.07
2018-04-26T05:36:29.606Z,3.57
2018-04-26T05:38:55.806Z,3.77
2018-04-26T05:41:22.769Z,4.20
2018-04-26T05:43:48.978Z,3.93
2018-04-26T05:46:15.174Z,4.00
2018-04-26T05:48:41.362Z,3.70
2018-04-26T05:51:08.276Z,3.93
2018-04-26T05:53:34.513Z,3.00
2018-04-26T05:56:00.704Z,3.83
2018-04-26T05:58:26.910Z,4.17
2018-04-26T06:00:53.848Z,3.40
2018-04-26T06:03:20.029Z,3.20
2018-04-26T06:05:46.266Z,3.70
2018-04-26T06:08:12.428Z,3.80
2018-04-26T06:10:38.626Z,3.77
2018-04-26T06:13:04.880Z,3.73
2018-04-26T06:15:31.124Z,4.10
2018-04-26T06:17:57.324Z,3.50
2018-04-26T06:20:23.514Z,3.37
2018-04-26T06:22:49.697Z,3.50
2018-04-26T06:25:15.886Z,3.03
2018-04-26T06:27:42.070Z,3.10
2018-04-26T06:30:08.290Z,2.83
2018-04-26T06:32:34.471Z,3.33
2018-04-26T06:35:00.654Z,3.20
2018-04-26T06:37:26.854Z,3.03
2018-04-26T06:39:53.779Z,2.90
2018-04-26T06:42:20.027Z,3.23
2018-04-26T06:44:46.204Z,2.97
2018-04-26T06:47:12.427Z,2.70
2018-04-26T06:49:38.616Z,2.87
2018-04-26T06:52:04.801Z,2.60
2018-04-26T06:54:30.977Z,2.50
2018-04-26T06:56:57.177Z,2.40
2018-04-26T06:59:23.385Z,2.87
2018-04-26T07:01:49.561Z,2.67
2018-04-26T07:04:15.823Z,2.60
2018-04-26T07:06:42.036Z,2.50
2018-04-26T07:09:08.227Z,2.60
2018-04-26T07:11:34.478Z,2.77
2018-04-26T07:14:01.377Z,2.57
2018-04-26T07:16:28.326Z,2.77
2018-04-26T07:18:54.519Z,3.10
2018-04-26T07:21:20.689Z,2.73
2018-04-26T07:23:46.869Z,3.27
2018-04-26T07:26:13.839Z,3.10
2018-04-26T07:28:40.047Z,3.67
2018-04-26T07:31:06.233Z,2.53
2018-04-26T07:33:32.433Z,2.63
2018-04-26T07:35:58.611Z,2.70
2018-04-26T07:38:24.861Z,2.70
2018-04-26T07:40:51.012Z,2.37
2018-04-26T07:43:17.193Z,2.40
2018-04-26T07:45:43.451Z,2.43
2018-04-26T07:48:09.637Z,2.90
2018-04-26T07:50:35.845Z,2.17
2018-04-26T07:53:02.070Z,2.40
2018-04-26T07:55:28.241Z,2.17
2018-04-26T07:57:54.629Z,2.50
2018-04-26T08:00:21.558Z,2.67
2018-04-26T08:02:47.747Z,2.40
2018-04-26T08:05:13.945Z,2.73
2018-04-26T08:07:40.866Z,2.37
2018-04-26T08:10:07.077Z,2.03
2018-04-26T08:12:33.257Z,2.20
2018-04-26T08:15:00.450Z,2.30
2018-04-26T08:17:26.761Z,2.20
2018-04-26T08:19:52.926Z,2.40
2018-04-26T08:22:19.151Z,2.43
2018-04-26T08:24:45.339Z,2.07
2018-04-26T08:27:12.273Z,2.10
2018-04-26T08:29:38.472Z,2.50
2018-04-26T08:32:04.658Z,2.00
2018-04-26T08:34:31.597Z,2.30
2018-04-26T08:36:57.835Z,2.43
2018-04-26T08:39:23.995Z,2.70
2018-04-26T08:41:50.193Z,2.60
2018-04-26T08:44:16.364Z,2.70
2018-04-26T08:46:42.574Z,2.23
2018-04-26T08:49:09.498Z,2.50
2018-04-26T08:51:35.691Z,2.40
2018-04-26T08:54:01.874Z,2.23
2018-04-26T08:56:28.798Z,2.33
2018-04-26T08:58:55.044Z,2.20
2018-04-26T09:01:21.246Z,2.43
2018-04-26T09:03:47.421Z,2.77
2018-04-26T09:06:13.633Z,2.53
2018-04-26T09:08:39.814Z,2.00
2018-04-26T09:11:06.013Z,2.00
2018-04-26T09:13:32.194Z,2.03
2018-04-26T09:15:58.514Z,1.80
2018-04-26T09:18:24.717Z,2.10
2018-04-26T09:20:50.904Z,1.87
2018-04-26T09:23:17.127Z,2.30
2018-04-26T09:25:43.314Z,2.20
2018-04-26T09:28:09.519Z,1.93
2018-04-26T09:30:35.710Z,2.40
2018-04-26T09:33:02.638Z,2.00
2018-04-26T09:35:28.825Z,1.97
2018-04-26T09:37:54.996Z,2.40
2018-04-26T09:40:21.201Z,2.27
2018-04-26T09:42:47.377Z,2.00
2018-04-26T09:45:13.579Z,1.83
2018-04-26T09:47:39.795Z,1.53
2018-04-26T09:50:05.983Z,1.50
2018-04-26T09:52:32.913Z,1.70
2018-04-26T09:54:59.107Z,2.13
2018-04-26T09:57:25.276Z,2.00
2018-04-26T09:59:51.470Z,1.87
2018-04-26T10:02:17.669Z,2.33
2018-04-26T10:04:49.909Z,1.80
2018-04-26T10:07:16.093Z,1.60
2018-04-26T10:09:42.311Z,1.43
2018-04-26T10:12:09.259Z,1.80
2018-04-26T10:14:35.469Z,1.70
2018-04-26T10:17:01.717Z,1.70
2018-04-26T10:19:27.886Z,2.03
2018-04-26T10:21:54.065Z,1.87
2018-04-26T10:24:20.253Z,1.97
2018-04-26T10:26:46.428Z,1.90
2018-04-26T10:29:12.641Z,2.10
2018-04-26T10:31:38.820Z,2.23
2018-04-26T10:34:05.748Z,2.17
2018-04-26T10:36:31.946Z,2.40
2018-04-26T10:38:58.130Z,2.40
2018-04-26T10:41:25.081Z,2.80
2018-04-26T10:43:52.317Z,3.00
2018-04-26T10:46:18.505Z,2.83
2018-04-26T10:48:44.689Z,3.33
2018-04-26T10:51:10.860Z,3.00
2018-04-26T10:53:37.073Z,2.93
2018-04-26T10:56:04.001Z,3.23
2018-04-26T10:58:30.164Z,2.90
2018-04-26T11:00:56.354Z,2.97
2018-04-26T11:03:22.525Z,2.77
2018-04-26T11:05:48.782Z,2.23
2018-04-26T11:08:14.973Z,2.80
2018-04-26T11:10:41.913Z,2.57
2018-04-26T11:13:08.114Z,2.50
2018-04-26T11:15:34.300Z,2.20
2018-04-26T11:18:00.519Z,1.93
2018-04-26T11:20:26.733Z,2.00
2018-04-26T11:22:52.922Z,2.03
2018-04-26T11:25:19.113Z,2.20
2018-04-26T11:27:45.321Z,1.70
2018-04-26T11:30:11.500Z,2.00
2018-04-26T11:32:38.453Z,1.87
2018-04-26T11:35:05.393Z,1.30
2018-04-26T11:37:32.321Z,1.47
2018-04-26T11:39:58.500Z,1.50
2018-04-26T11:42:24.714Z,1.30
2018-04-26T11:44:51.649Z,1.60
2018-04-26T11:47:17.870Z,1.20
2018-04-26T11:49:44.063Z,1.33
2018-04-26T11:52:10.251Z,1.30
2018-04-26T11:54:37.191Z,1.20
2018-04-26T11:57:03.398Z,1.27
2018-04-26T11:59:29.605Z,1.10
2018-04-26T12:01:55.789Z,1.50
2018-04-26T12:04:21.968Z,1.50
2018-04-26T12:06:48.154Z,1.33
2018-04-26T12:09:14.350Z,1.50
2018-04-26T12:11:40.566Z,1.07
2018-04-26T12:14:06.767Z,1.27
2018-04-26T12:16:33.693Z,1.10
2018-04-26T12:18:59.886Z,1.00
2018-04-26T12:21:26.074Z,1.00
2018-04-26T12:23:52.291Z,0.80
2018-04-26T12:26:18.477Z,1.27
2018-04-26T12:28:44.732Z,1.10
2018-04-26T12:31:10.932Z,1.23
2018-04-26T12:33:37.133Z,1.13
2018-04-26T12:36:03.342Z,1.10
2018-04-26T12:38:29.525Z,0.97
2018-04-26T12:40:56.442Z,1.00
2018-04-26T12:43:22.627Z,1.20
2018-04-26T12:45:48.792Z,1.20
2018-04-26T12:48:15.001Z,1.10
2018-04-26T12:50:41.177Z,1.43
2018-04-26T12:53:07.361Z,1.03
2018-04-26T12:55:33.545Z,1.10
2018-04-26T12:57:59.732Z,1.20
2018-04-26T13:00:25.953Z,1.07
2018-04-26T13:02:52.173Z,1.27
2018-04-26T13:05:19.094Z,1.17
2018-04-26T13:07:45.313Z,1.10
2018-04-26T13:10:11.506Z,1.20
2018-04-26T13:12:37.755Z,1.50
2018-04-26T13:15:03.939Z,1.30
2018-04-26T13:17:31.180Z,1.50
2018-04-26T13:19:57.803Z,1.20
2018-04-26T13:22:24.002Z,1.23
2018-04-26T13:24:50.193Z,2.20
2018-04-26T13:27:16.373Z,2.00
2018-04-26T13:29:42.550Z,1.80
2018-04-26T13:32:08.742Z,2.10
2018-04-26T13:34:34.923Z,1.90
2018-04-26T13:37:01.143Z,2.00
2018-04-26T13:39:27.406Z,1.97
2018-04-26T13:41:54.332Z,1.80
2018-04-26T13:44:20.525Z,1.80
2018-04-26T13:46:46.709Z,2.00
2018-04-26T13:49:12.917Z,2.20
2018-04-26T13:51:39.097Z,2.50
2018-04-26T13:54:06.021Z,2.50
2018-04-26T13:56:32.218Z,2.37
2018-04-26T13:58:58.403Z,2.60
2018-04-26T14:01:25.368Z,2.83
2018-04-26T14:03:52.298Z,2.27
2018-04-26T14:06:18.494Z,2.73
2018-04-26T14:08:44.695Z,2.60
2018-04-26T14:11:10.882Z,2.53
2018-04-26T14:13:37.120Z,2.43
2018-04-26T14:16:03.311Z,2.27
2018-04-26T14:18:29.500Z,2.40
2018-04-26T14:20:56.471Z,2.03
2018-04-26T14:23:22.686Z,2.63
2018-04-26T14:25:48.882Z,1.90
2018-04-26T14:28:15.058Z,2.40
2018-04-26T14:30:41.974Z,2.53
2018-04-26T14:33:08.184Z,2.03
2018-04-26T14:35:34.392Z,2.07
2018-04-26T14:38:00.610Z,2.67
2018-04-26T14:40:27.546Z,2.30
2018-04-26T14:42:53.727Z,2.10
2018-04-26T14:45:19.922Z,2.37
2018-04-26T14:47:46.853Z,2.07
2018-04-26T14:50:13.060Z,1.80
2018-04-26T14:52:39.284Z,2.17
2018-04-26T14:55:05.490Z,1.67
2018-04-26T14:57:31.681Z,1.90
2018-04-26T14:59:57.852Z,1.60
2018-04-26T15:02:24.056Z,2.00
2018-04-26T15:04:50.244Z,2.30
2018-04-26T15:07:16.418Z,1.73
2018-04-26T15:09:42.618Z,2.03
2018-04-26T15:12:08.814Z,2.27
2018-04-26T15:14:35.001Z,2.33
2018-04-26T15:17:01.217Z,1.87
2018-04-26T15:19:27.405Z,1.80
2018-04-26T15:21:54.328Z,2.00
2018-04-26T15:24:20.538Z,2.10
2018-04-26T15:26:46.709Z,2.10
2018-04-26T15:29:13.629Z,1.77
2018-04-26T15:31:39.813Z,1.70
2018-04-26T15:34:05.981Z,1.87
2018-04-26T15:36:32.231Z,1.80
2018-04-26T15:38:58.410Z,1.70
2018-04-26T15:41:24.593Z,1.90
2018-04-26T15:43:50.789Z,1.70
2018-04-26T15:46:16.984Z,1.93
2018-04-26T15:48:43.213Z,1.60
2018-04-26T15:51:09.426Z,1.90
2018-04-26T15:53:47.877Z,2.13
2018-04-26T15:56:14.840Z,2.03
2018-04-26T16:02:31.577Z,0.87
2018-04-26T16:05:16.333Z,0.80
2018-04-26T16:08:00.953Z,1.00
2018-04-26T16:10:45.671Z,0.90
2018-04-26T16:13:45.805Z,0.70
2018-04-26T16:16:30.574Z,0.90
2018-04-26T16:19:27.902Z,0.60
2018-04-26T16:22:12.506Z,0.60
2018-04-26T16:24:53.002Z,0.53
2018-04-26T16:27:38.753Z,0.60
2018-04-26T16:30:17.178Z,0.50
2018-04-26T16:33:02.843Z,0.50
2018-04-26T16:35:41.326Z,0.70
2018-04-26T16:41:11.828Z,0.67
2018-04-26T16:43:38.049Z,0.50
2018-04-26T16:46:04.276Z,0.60
2018-04-26T16:48:31.195Z,0.60
2018-04-26T16:50:57.382Z,0.60
2018-04-26T16:53:23.555Z,0.60
2018-04-26T16:55:49.756Z,0.40
2018-04-26T16:58:15.942Z,0.70
2018-04-26T17:00:42.129Z,0.50
2018-04-26T17:03:08.319Z,0.70
2018-04-26T17:05:35.223Z,0.30
2018-04-26T17:08:01.430Z,0.60
2018-04-26T17:10:27.624Z,0.40
2018-04-26T17:12:53.834Z,0.50
2018-04-26T17:15:20.080Z,0.47
2018-04-26T17:17:46.237Z,0.50
2018-04-26T17:20:13.173Z,0.30
2018-04-26T17:22:40.811Z,0.50
2018-04-26T17:25:06.935Z,0.70
2018-04-26T17:27:33.131Z,0.63
2018-04-26T17:29:59.323Z,0.60
2018-04-26T17:32:26.254Z,0.50
2018-04-26T17:34:52.454Z,0.60
2018-04-26T17:37:18.645Z,0.50
2018-04-26T17:39:44.828Z,0.70
2018-04-26T17:42:11.005Z,0.50
2018-04-26T17:44:37.193Z,0.57
2018-04-26T17:47:10.404Z,0.60
2018-04-26T17:49:36.609Z,0.50
2018-04-26T17:54:35.443Z,0.50
2018-04-26T17:57:01.642Z,0.50
2018-04-26T17:59:27.830Z,0.60
2018-04-26T18:01:54.041Z,0.50
2018-04-26T18:04:20.228Z,0.57
2018-04-26T18:06:47.148Z,0.60
2018-04-26T18:09:13.337Z,0.70
2018-04-26T18:11:39.517Z,0.70
2018-04-26T18:14:05.726Z,0.70
2018-04-26T18:16:31.898Z,0.80
2018-04-26T18:18:58.102Z,0.80
2018-04-26T18:21:24.299Z,0.63
2018-04-26T18:23:50.553Z,0.80
2018-04-26T18:26:16.725Z,0.60
2018-04-26T18:28:43.008Z,0.83
2018-04-26T18:31:09.135Z,0.93
2018-04-26T18:33:35.326Z,0.57
2018-04-26T18:36:01.621Z,0.90
2018-04-26T18:38:27.686Z,0.70
2018-04-26T18:40:53.941Z,0.77
2018-04-26T18:43:20.856Z,1.13
2018-04-26T18:45:47.039Z,0.80
2018-04-26T18:48:13.233Z,0.70
2018-04-26T18:50:39.417Z,0.70
2018-04-26T18:53:05.630Z,0.70
2018-04-26T18:55:32.556Z,0.93
2018-04-26T18:57:58.741Z,0.80
2018-04-26T19:00:24.909Z,1.00
2018-04-26T19:02:51.111Z,0.80
2018-04-26T19:05:17.300Z,0.80
2018-04-26T19:07:44.219Z,1.00
2018-04-26T19:10:10.418Z,1.10
2018-04-26T19:12:36.593Z,0.70
2018-04-26T19:15:02.837Z,0.80
2018-04-26T19:17:29.041Z,0.80
2018-04-26T19:19:55.445Z,0.70
2018-04-26T19:22:21.701Z,0.90
2018-04-26T19:24:47.868Z,1.00
2018-04-26T19:27:14.081Z,1.20
2018-04-26T19:29:40.258Z,0.83
2018-04-26T19:32:07.171Z,1.10
2018-04-26T19:34:33.362Z,1.00
2018-04-26T19:36:59.525Z,0.97
2018-04-26T19:39:25.783Z,1.37
2018-04-26T19:41:51.914Z,0.90
2018-04-26T19:44:18.085Z,1.10
2018-04-26T19:46:44.258Z,1.20
2018-04-26T19:49:10.437Z,1.10
2018-04-26T19:51:37.386Z,1.10
2018-04-26T19:54:04.319Z,1.30
2018-04-26T19:56:30.493Z,1.10
2018-04-26T19:58:56.686Z,1.53
2018-04-26T20:01:22.860Z,1.50
2018-04-26T20:03:49.068Z,1.67
2018-04-26T20:06:15.999Z,1.40
2018-04-26T20:08:42.228Z,1.40
2018-04-26T20:11:08.444Z,1.80
2018-04-26T20:13:34.623Z,1.50
2018-04-26T20:16:00.823Z,1.60
2018-04-26T20:18:27.356Z,1.83
2018-04-26T20:20:53.686Z,1.33
2018-04-26T20:23:20.608Z,1.63
2018-04-26T20:25:46.798Z,1.77
2018-04-26T20:28:13.785Z,1.40
2018-04-26T20:30:40.734Z,1.80
2018-04-26T20:33:06.904Z,1.50
2018-04-26T20:35:33.098Z,1.40
2018-04-26T20:37:59.282Z,1.63
2018-04-26T20:40:25.476Z,1.80
2018-04-26T20:42:51.656Z,1.50
2018-04-26T20:45:17.866Z,1.37
2018-04-26T20:47:44.074Z,1.40
2018-04-26T20:50:10.261Z,1.70
2018-04-26T20:52:36.455Z,1.60
2018-04-26T20:55:02.664Z,1.80
2018-04-26T20:57:28.861Z,1.73
2018-04-26T20:59:55.784Z,1.97
2018-04-26T21:02:22.029Z,1.70
2018-04-26T21:04:48.202Z,1.80
2018-04-26T21:07:14.394Z,1.60
2018-04-26T21:09:40.584Z,1.57
2018-04-26T21:12:06.783Z,1.43
2018-04-26T21:14:33.720Z,1.60
2018-04-26T21:16:59.922Z,1.43
2018-04-26T21:19:26.131Z,1.53
2018-04-26T21:21:52.308Z,1.30
2018-04-26T21:24:18.514Z,1.60
2018-04-26T21:26:44.729Z,1.80
2018-04-26T21:29:10.910Z,1.60
2018-04-26T21:31:37.119Z,1.30
2018-04-26T21:34:03.462Z,1.40
2018-04-26T21:36:29.704Z,1.43
2018-04-26T21:38:55.913Z,1.63
2018-04-26T21:41:22.088Z,1.37
2018-04-26T21:43:49.005Z,1.50
2018-04-26T21:46:15.202Z,2.03
2018-04-26T21:48:41.401Z,1.67
2018-04-26T21:51:13.827Z,1.70
2018-04-26T21:53:46.149Z,1.50
2018-04-26T21:56:18.427Z,1.73
2018-04-26T21:58:51.398Z,2.10
2018-04-26T22:01:23.714Z,1.70
2018-04-26T22:04:06.880Z,1.60
2018-04-26T22:06:33.112Z,1.87
2018-04-26T22:08:59.310Z,1.77
2018-04-26T22:11:25.494Z,1.80
2018-04-26T22:13:51.670Z,1.77
2018-04-26T22:16:17.854Z,1.97
2018-04-26T22:18:44.054Z,1.97
2018-04-26T22:21:10.470Z,2.03
2018-04-26T22:23:36.918Z,1.80
2018-04-26T22:26:03.121Z,2.10
2018-04-26T22:28:30.034Z,2.43
2018-04-26T22:30:56.255Z,2.00
2018-04-26T22:33:22.467Z,2.10
2018-04-26T22:35:48.651Z,2.00
2018-04-26T22:38:14.842Z,1.70
2018-04-26T22:40:41.041Z,1.87
2018-04-26T22:43:07.265Z,2.10
2018-04-26T22:45:34.193Z,2.27
2018-04-26T22:48:00.370Z,2.83
2018-04-26T22:50:26.557Z,2.83
2018-04-26T22:52:52.740Z,2.70
2018-04-26T22:55:18.918Z,2.90
2018-04-26T22:57:45.145Z,2.70
2018-04-26T23:00:11.342Z,3.43
2018-04-26T23:02:37.529Z,3.03
2018-04-26T23:05:03.746Z,3.00
2018-04-26T23:07:29.945Z,2.80
2018-04-26T23:09:56.121Z,3.10
2018-04-26T23:12:22.315Z,2.70
2018-04-26T23:14:48.493Z,2.70
2018-04-26T23:17:14.697Z,2.50
2018-04-26T23:19:40.876Z,2.93
2018-04-26T23:22:07.826Z,2.50
2018-04-26T23:24:34.761Z,2.90
2018-04-26T23:27:00.971Z,2.87
2018-04-26T23:29:27.202Z,2.60
2018-04-26T23:31:53.369Z,2.83
2018-04-26T23:34:20.290Z,2.37
2018-04-26T23:36:46.498Z,3.27
2018-04-26T23:39:12.673Z,3.00
2018-04-26T23:41:38.874Z,3.17
2018-04-26T23:44:05.082Z,2.90
2018-04-26T23:46:31.298Z,3.10
2018-04-26T23:48:58.214Z,3.50
2018-04-26T23:51:24.423Z,3.40
2018-04-26T23:53:50.705Z,3.27
2018-04-26T23:56:17.633Z,3.50
2018-04-26T23:58:43.811Z,3.50
